FQIN

Inhambane Airport

Inhambabe, Mozambique
METAR FQIN 241800Z 00000KT 9999 FEW020 24/20 Q1019
Observed Flight Rules
Sep-24 @ 18:00 UTC (4 hours ago) Visual Flight Rules
Visibility Clouds
10,000+ meters
  • Few at 2,000' AGL
Temperatures Readings
Current 24°C / 75°F
Dewpoint 20°C / 68°F
Humidity 78%
Altimeter 30.09" Hg
Pressure 1019 hPa
Elevation 15
METAR FQIN 241800Z 00000KT 9999 FEW020 24/20 Q1019
Observed Flight Rules
Sep-24 @ 18:00 UTC
(4 hours ago)
VFR
Clouds
  • Few at 2,000' AGL
Temperature Dewpoint
24°C / 75°F 20°C / 68°F
Humidity Altimeter Pressure
78% 30.09" Hg 1019 hPa